createdAt,value
2023-04-22T00:01:24.558Z,10.51
2023-04-22T00:03:51.884Z,10.44
2023-04-22T00:06:18.917Z,10.46
2023-04-22T00:08:45.488Z,10.45
2023-04-22T00:11:12.124Z,10.47
2023-04-22T00:13:38.680Z,10.54
2023-04-22T00:16:05.478Z,10.47
2023-04-22T00:18:35.869Z,10.49
2023-04-22T00:21:03.150Z,10.50
2023-04-22T00:23:29.832Z,10.59
2023-04-22T00:25:56.334Z,10.62
2023-04-22T00:28:22.813Z,10.49
2023-04-22T00:30:49.345Z,10.51
2023-04-22T00:33:15.826Z,10.48
2023-04-22T00:35:42.304Z,10.54
2023-04-22T00:38:08.791Z,10.52
2023-04-22T00:40:35.233Z,10.62
2023-04-22T00:43:02.889Z,10.62
2023-04-22T00:45:30.656Z,10.54
2023-04-22T00:47:57.613Z,10.51
2023-04-22T00:50:24.232Z,10.43
2023-04-22T00:52:50.717Z,10.41
2023-04-22T00:55:17.364Z,10.54
2023-04-22T00:57:44.488Z,10.40
2023-04-22T01:00:11.671Z,10.43
2023-04-22T01:02:38.946Z,10.36
2023-04-22T01:05:08.507Z,10.40
2023-04-22T01:07:36.358Z,10.27
2023-04-22T01:10:03.862Z,10.24
2023-04-22T01:12:30.420Z,10.31
2023-04-22T01:14:57.049Z,10.26
2023-04-22T01:17:24.791Z,10.26
2023-04-22T01:19:52.737Z,10.14
2023-04-22T01:22:20.766Z,10.21
2023-04-22T01:24:47.471Z,10.15
2023-04-22T01:27:14.323Z,10.05
2023-04-22T01:29:41.053Z,9.97
2023-04-22T01:32:07.944Z,10.07
2023-04-22T01:34:34.658Z,10.07
2023-04-22T01:37:01.212Z,10.04
2023-04-22T01:39:27.897Z,10.09
2023-04-22T01:41:55.697Z,10.00
2023-04-22T01:44:22.690Z,10.05
2023-04-22T01:46:49.187Z,9.98
2023-04-22T01:49:15.631Z,9.93
2023-04-22T01:51:42.188Z,9.95
2023-04-22T01:54:10.285Z,9.90
2023-04-22T01:56:38.686Z,9.87
2023-04-22T01:59:05.208Z,9.70
2023-04-22T02:01:31.741Z,9.70
2023-04-22T02:03:58.288Z,9.71
2023-04-22T02:06:24.843Z,9.75
2023-04-22T02:08:51.307Z,9.84
2023-04-22T02:11:17.797Z,9.81
2023-04-22T02:13:44.994Z,9.81
2023-04-22T02:16:11.606Z,9.66
2023-04-22T02:18:38.208Z,9.58
2023-04-22T02:21:04.721Z,9.65
2023-04-22T02:23:31.210Z,9.64
2023-04-22T02:25:57.698Z,9.66
2023-04-22T02:28:24.301Z,9.49
2023-04-22T02:30:50.928Z,9.58
2023-04-22T02:33:17.503Z,9.64
2023-04-22T02:35:43.938Z,9.66
2023-04-22T02:38:11.009Z,9.56
2023-04-22T02:40:37.531Z,9.56
2023-04-22T02:43:04.344Z,9.54
2023-04-22T02:45:30.901Z,9.57
2023-04-22T02:47:57.425Z,9.60
2023-04-22T02:50:24.064Z,9.68
2023-04-22T02:52:51.331Z,9.70
2023-04-22T02:55:17.948Z,9.62
2023-04-22T02:57:44.407Z,9.65
2023-04-22T03:00:11.357Z,9.66
2023-04-22T03:02:38.791Z,9.55
2023-04-22T03:05:06.056Z,9.67
2023-04-22T03:07:32.594Z,9.63
2023-04-22T03:09:59.128Z,9.63
2023-04-22T03:12:25.621Z,9.67
2023-04-22T03:14:52.118Z,9.63
2023-04-22T03:17:18.713Z,9.60
2023-04-22T03:19:45.251Z,9.61
2023-04-22T03:22:11.753Z,9.56
2023-04-22T03:24:38.342Z,9.54
2023-04-22T03:27:05.389Z,9.52
2023-04-22T03:29:32.365Z,9.56
2023-04-22T03:31:58.941Z,9.50
2023-04-22T03:34:25.606Z,9.55
2023-04-22T03:36:52.232Z,9.50
2023-04-22T03:39:18.698Z,9.45
2023-04-22T03:41:45.350Z,9.43
2023-04-22T03:44:11.846Z,9.22
2023-04-22T03:46:38.261Z,9.22
2023-04-22T03:49:05.537Z,9.23
2023-04-22T03:51:32.222Z,9.27
2023-04-22T03:53:58.698Z,9.20
2023-04-22T03:56:25.519Z,9.12
2023-04-22T03:58:52.027Z,9.06
2023-04-22T04:01:18.540Z,9.02
2023-04-22T04:03:45.239Z,9.02
2023-04-22T04:06:12.027Z,9.17
2023-04-22T04:08:38.544Z,9.14
2023-04-22T04:11:05.064Z,9.10
2023-04-22T04:13:32.457Z,9.05
2023-04-22T04:16:00.470Z,9.04
2023-04-22T04:18:27.385Z,9.03
2023-04-22T04:20:53.902Z,8.93
2023-04-22T04:23:20.411Z,8.82
2023-04-22T04:25:47.005Z,8.75
2023-04-22T04:28:13.828Z,8.68
2023-04-22T04:30:41.732Z,8.83
2023-04-22T04:33:08.610Z,8.71
2023-04-22T04:35:37.513Z,8.71
2023-04-22T04:38:05.651Z,8.67
2023-04-22T04:40:32.710Z,8.69
2023-04-22T04:43:02.551Z,8.56
2023-04-22T04:45:30.026Z,8.64
2023-04-22T04:47:56.865Z,8.58
2023-04-22T04:50:23.673Z,8.75
2023-04-22T04:52:50.283Z,8.74
2023-04-22T04:55:17.606Z,8.75
2023-04-22T04:57:45.608Z,8.74
2023-04-22T05:00:14.065Z,8.78
2023-04-22T05:02:41.084Z,8.86
2023-04-22T05:05:08.649Z,8.85
2023-04-22T05:07:35.516Z,8.96
2023-04-22T05:10:02.774Z,9.02
2023-04-22T05:12:29.242Z,9.12
2023-04-22T05:14:55.741Z,9.20
2023-04-22T05:17:22.339Z,9.25
2023-04-22T05:19:48.910Z,9.18
2023-04-22T05:22:15.881Z,9.21
2023-04-22T05:24:42.345Z,9.20
2023-04-22T05:27:09.305Z,9.33
2023-04-22T05:29:36.714Z,9.29
2023-04-22T05:32:03.221Z,9.34
2023-04-22T05:34:29.711Z,9.32
2023-04-22T05:36:56.186Z,9.33
2023-04-22T05:39:22.759Z,9.47
2023-04-22T05:41:49.371Z,9.56
2023-04-22T05:44:17.509Z,9.76
2023-04-22T05:46:44.105Z,9.96
2023-04-22T05:49:10.606Z,9.99
2023-04-22T05:51:37.174Z,10.05
2023-04-22T05:54:03.921Z,9.99
2023-04-22T05:56:30.530Z,10.04
2023-04-22T05:58:57.029Z,9.94
2023-04-22T06:01:24.818Z,10.00
2023-04-22T06:03:51.674Z,10.04
2023-04-22T06:06:18.736Z,10.09
2023-04-22T06:08:45.263Z,10.22
2023-04-22T06:11:11.798Z,10.30
2023-04-22T06:13:38.305Z,10.45
2023-04-22T06:18:32.876Z,10.45
2023-04-22T06:20:59.408Z,10.54
2023-04-22T06:23:26.110Z,10.49
2023-04-22T06:25:52.583Z,10.47
2023-04-22T06:28:19.068Z,10.42
2023-04-22T06:30:45.573Z,10.47
2023-04-22T06:33:12.645Z,10.52
2023-04-22T06:35:39.263Z,10.63
2023-04-22T06:38:05.770Z,10.67
2023-04-22T06:40:32.313Z,10.71
2023-04-22T06:42:59.775Z,10.64
2023-04-22T06:45:26.387Z,10.64
2023-04-22T06:47:56.043Z,10.74
2023-04-22T06:50:22.792Z,10.77
2023-04-22T06:52:49.503Z,10.91
2023-04-22T06:55:16.039Z,10.89
2023-04-22T06:57:42.541Z,10.95
2023-04-22T07:00:09.378Z,11.06
2023-04-22T07:02:35.893Z,11.19
2023-04-22T07:05:02.426Z,11.18
2023-04-22T07:07:29.159Z,11.17
2023-04-22T07:09:55.754Z,11.20
2023-04-22T07:12:22.304Z,11.20
2023-04-22T07:14:49.612Z,11.12
2023-04-22T07:17:19.309Z,11.24
2023-04-22T07:19:45.816Z,11.29
2023-04-22T07:22:12.413Z,11.27
2023-04-22T07:24:39.873Z,11.28
2023-04-22T07:27:06.672Z,11.41
2023-04-22T07:29:34.036Z,11.41
2023-04-22T07:32:00.618Z,11.52
2023-04-22T07:34:27.226Z,11.59
2023-04-22T07:36:53.782Z,11.51
2023-04-22T07:39:20.589Z,11.55
2023-04-22T07:41:47.060Z,11.57
2023-04-22T07:44:17.294Z,11.56
2023-04-22T07:46:44.039Z,11.55
2023-04-22T07:49:10.521Z,11.54
2023-04-22T07:51:37.033Z,11.45
2023-04-22T07:54:03.667Z,11.47
2023-04-22T07:56:30.507Z,11.58
2023-04-22T07:58:56.996Z,11.51
2023-04-22T08:01:23.516Z,11.60
2023-04-22T08:03:50.237Z,11.65
2023-04-22T08:06:17.322Z,11.67
2023-04-22T08:08:43.848Z,11.69
2023-04-22T08:11:10.347Z,11.68
2023-04-22T08:13:36.759Z,11.80
2023-04-22T08:16:03.471Z,11.87
2023-04-22T08:18:30.322Z,11.94
2023-04-22T08:20:56.770Z,12.05
2023-04-22T08:23:23.433Z,12.20
2023-04-22T08:25:50.121Z,12.38
2023-04-22T08:28:16.684Z,12.74
2023-04-22T08:30:43.226Z,13.18
2023-04-22T08:33:09.790Z,13.72
2023-04-22T08:35:36.661Z,14.47
2023-04-22T08:38:03.327Z,15.34
2023-04-22T08:40:30.032Z,15.77
2023-04-22T08:42:57.567Z,16.47
2023-04-22T08:45:24.290Z,16.76
2023-04-22T08:47:52.477Z,16.99
2023-04-22T08:50:21.380Z,16.95
2023-04-22T08:52:48.071Z,16.84
2023-04-22T08:55:14.496Z,16.93
2023-04-22T08:57:41.326Z,16.80
2023-04-22T09:00:11.117Z,17.01
2023-04-22T09:02:39.773Z,17.32
2023-04-22T09:05:09.382Z,17.26
2023-04-22T09:07:36.516Z,18.00
2023-04-22T09:10:03.236Z,18.53
2023-04-22T09:12:29.811Z,19.51
2023-04-22T09:14:56.431Z,19.67
2023-04-22T09:17:38.393Z,20.12
2023-04-22T09:20:07.234Z,19.54
2023-04-22T09:22:45.075Z,19.79
2023-04-22T09:25:22.656Z,19.63
2023-04-22T09:27:59.410Z,18.55
2023-04-22T09:30:31.129Z,18.14
2023-04-22T09:33:02.639Z,17.84
2023-04-22T09:35:34.992Z,17.65
2023-04-22T09:38:04.836Z,17.58
2023-04-22T09:40:32.081Z,17.60
2023-04-22T09:43:02.548Z,17.52
2023-04-22T09:45:33.312Z,17.50
2023-04-22T09:48:03.160Z,17.34
2023-04-22T09:50:29.694Z,17.41
2023-04-22T09:52:59.022Z,17.63
2023-04-22T09:55:27.936Z,17.81
2023-04-22T09:57:56.457Z,17.82
2023-04-22T10:00:30.723Z,18.63
2023-04-22T10:02:57.266Z,19.98
2023-04-22T10:05:25.417Z,20.13
2023-04-22T10:07:52.194Z,19.79
2023-04-22T10:10:18.763Z,20.05
2023-04-22T10:12:47.415Z,19.85
2023-04-22T10:15:14.208Z,19.34
2023-04-22T10:17:42.138Z,19.26
2023-04-22T10:20:16.145Z,19.21
2023-04-22T10:22:43.325Z,18.99
2023-04-22T10:25:21.477Z,18.86
2023-04-22T10:28:01.705Z,18.87
2023-04-22T10:30:30.564Z,18.88
2023-04-22T10:33:17.055Z,18.95
2023-04-22T10:36:09.242Z,19.32
2023-04-22T10:38:37.317Z,19.44
2023-04-22T10:41:04.150Z,19.41
2023-04-22T10:43:55.179Z,19.32
2023-04-22T10:46:32.134Z,19.18
2023-04-22T10:49:12.105Z,19.12
2023-04-22T10:51:42.537Z,19.10
2023-04-22T10:54:36.523Z,18.98
2023-04-22T10:57:08.836Z,18.88
2023-04-22T10:59:42.520Z,18.78
2023-04-22T11:02:11.754Z,18.75
2023-04-22T11:04:39.453Z,18.75
2023-04-22T11:07:16.281Z,18.83
2023-04-22T11:09:47.553Z,18.96
2023-04-22T11:12:35.959Z,19.02
2023-04-22T11:15:06.205Z,18.99
2023-04-22T11:17:32.894Z,18.92
2023-04-22T11:19:59.923Z,19.07
2023-04-22T11:22:27.097Z,19.25
2023-04-22T11:24:57.491Z,19.34
2023-04-22T11:27:27.816Z,19.41
2023-04-22T11:30:08.493Z,19.56
2023-04-22T11:32:36.629Z,19.58
2023-04-22T11:35:05.244Z,19.67
2023-04-22T11:37:31.777Z,19.82
2023-04-22T11:40:21.458Z,19.81
2023-04-22T11:42:49.340Z,19.81
2023-04-22T11:45:16.260Z,20.01
2023-04-22T11:47:43.173Z,20.32
2023-04-22T11:50:11.857Z,20.62
2023-04-22T11:52:57.108Z,21.01
2023-04-22T11:55:31.554Z,21.47
2023-04-22T11:57:59.683Z,21.77
2023-04-22T12:00:31.902Z,21.94
2023-04-22T12:03:07.982Z,22.01
2023-04-22T12:05:39.704Z,22.02
2023-04-22T12:08:11.219Z,22.02
2023-04-22T12:10:47.805Z,21.76
2023-04-22T12:13:20.871Z,21.53
2023-04-22T12:15:48.184Z,21.49
2023-04-22T12:18:14.693Z,21.25
2023-04-22T12:20:42.230Z,21.23
2023-04-22T12:23:17.161Z,21.25
2023-04-22T12:25:43.784Z,21.24
2023-04-22T12:28:11.159Z,21.35
2023-04-22T12:30:37.626Z,21.72
2023-04-22T12:33:04.169Z,22.05
2023-04-22T12:35:30.671Z,22.29
2023-04-22T12:37:57.220Z,22.32
2023-04-22T12:40:23.829Z,22.15
2023-04-22T12:42:50.414Z,22.27
2023-04-22T12:45:16.887Z,22.47
2023-04-22T12:47:43.448Z,22.52
2023-04-22T12:50:09.954Z,22.68
2023-04-22T12:52:36.561Z,22.77
2023-04-22T12:55:03.878Z,22.95
2023-04-22T12:57:30.410Z,22.90
2023-04-22T12:59:58.256Z,22.70
2023-04-22T13:02:24.902Z,22.40
2023-04-22T13:04:51.687Z,22.08
2023-04-22T13:07:19.216Z,21.87
2023-04-22T13:09:45.765Z,21.85
2023-04-22T13:12:12.261Z,21.91
2023-04-22T13:14:39.202Z,21.83
2023-04-22T13:17:06.228Z,21.74
2023-04-22T13:19:35.126Z,21.80
2023-04-22T13:22:01.752Z,21.87
2023-04-22T13:24:28.332Z,21.99
2023-04-22T13:26:54.936Z,22.14
2023-04-22T13:29:21.731Z,22.13
2023-04-22T13:31:48.303Z,22.02
2023-04-22T13:34:15.357Z,21.96
2023-04-22T13:36:41.960Z,21.91
2023-04-22T13:39:08.944Z,22.03
2023-04-22T13:41:36.124Z,22.22
2023-04-22T13:44:04.366Z,22.24
2023-04-22T13:46:31.139Z,22.13
2023-04-22T13:48:58.650Z,21.92
2023-04-22T13:51:25.197Z,21.72
2023-04-22T13:53:51.837Z,21.49
2023-04-22T13:56:18.389Z,21.30
2023-04-22T13:58:44.932Z,21.17
2023-04-22T14:01:11.517Z,21.07
2023-04-22T14:03:38.147Z,21.03
2023-04-22T14:06:04.878Z,20.98
2023-04-22T14:08:31.361Z,20.96
2023-04-22T14:10:59.357Z,20.84
2023-04-22T14:13:27.468Z,20.67
2023-04-22T14:15:54.062Z,20.40
2023-04-22T14:18:22.120Z,20.13
2023-04-22T14:20:49.151Z,20.01
2023-04-22T14:23:15.825Z,19.83
2023-04-22T14:25:43.797Z,19.77
2023-04-22T14:28:10.470Z,19.70
2023-04-22T14:30:37.097Z,19.65
2023-04-22T14:33:06.965Z,19.56
2023-04-22T14:35:36.405Z,19.43
2023-04-22T14:38:05.585Z,19.34
2023-04-22T14:40:32.115Z,19.21
2023-04-22T14:43:00.898Z,19.02
2023-04-22T14:45:29.268Z,18.99
2023-04-22T14:47:56.984Z,18.86
2023-04-22T14:50:23.619Z,18.84
2023-04-22T14:52:50.991Z,18.80
2023-04-22T14:55:23.358Z,18.78
2023-04-22T14:57:52.279Z,18.83
2023-04-22T15:00:19.017Z,18.80
2023-04-22T15:02:45.854Z,18.73
2023-04-22T15:05:12.338Z,18.70
2023-04-22T15:07:38.856Z,18.59
2023-04-22T15:10:05.786Z,18.53
2023-04-22T15:12:32.318Z,18.58
2023-04-22T15:14:58.827Z,18.59
2023-04-22T15:17:25.672Z,18.38
2023-04-22T15:19:54.823Z,18.41
2023-04-22T15:22:21.262Z,18.38
2023-04-22T15:24:47.730Z,18.33
2023-04-22T15:27:14.263Z,18.33
2023-04-22T15:29:45.017Z,18.37
2023-04-22T15:32:11.616Z,18.33
2023-04-22T15:34:38.152Z,18.30
2023-04-22T15:37:04.768Z,18.30
2023-04-22T15:39:31.249Z,18.31
2023-04-22T15:41:57.760Z,18.25
2023-04-22T15:44:24.321Z,18.30
2023-04-22T15:46:53.947Z,18.23
2023-04-22T15:49:20.548Z,18.27
2023-04-22T15:51:47.549Z,18.26
2023-04-22T15:54:14.040Z,18.18
2023-04-22T15:56:40.796Z,18.09
2023-04-22T15:59:07.398Z,18.03
2023-04-22T16:01:33.913Z,18.02
2023-04-22T16:04:01.140Z,17.97
2023-04-22T16:06:28.066Z,18.00
2023-04-22T16:08:55.186Z,18.07
2023-04-22T16:11:21.743Z,17.78
2023-04-22T16:13:48.182Z,17.75
2023-04-22T16:16:14.713Z,17.58
2023-04-22T16:18:44.094Z,17.64
2023-04-22T16:21:11.144Z,17.44
2023-04-22T16:23:37.727Z,17.46
2023-04-22T16:26:05.798Z,17.43
2023-04-22T16:28:32.463Z,17.54
2023-04-22T16:30:59.082Z,17.55
2023-04-22T16:33:25.868Z,17.56
2023-04-22T16:35:52.360Z,17.54
2023-04-22T16:38:18.821Z,17.50
2023-04-22T16:40:45.492Z,17.53
2023-04-22T16:43:13.005Z,17.55
2023-04-22T16:45:39.691Z,17.46
2023-04-22T16:48:06.329Z,17.38
2023-04-22T16:50:32.829Z,17.43
2023-04-22T16:52:59.293Z,17.48
2023-04-22T16:55:25.772Z,17.37
2023-04-22T16:57:52.298Z,17.27
2023-04-22T17:00:18.819Z,17.15
2023-04-22T17:02:45.669Z,17.03
2023-04-22T17:05:12.303Z,16.98
2023-04-22T17:07:38.839Z,17.02
2023-04-22T17:10:05.984Z,17.01
2023-04-22T17:12:32.545Z,17.00
2023-04-22T17:14:59.056Z,16.96
2023-04-22T17:17:25.725Z,16.86
2023-04-22T17:19:52.327Z,16.78
2023-04-22T17:22:18.905Z,16.65
2023-04-22T17:24:46.135Z,16.56
2023-04-22T17:27:15.155Z,16.51
2023-04-22T17:29:41.954Z,16.46
2023-04-22T17:32:08.903Z,16.41
2023-04-22T17:34:35.543Z,16.41
2023-04-22T17:37:02.095Z,16.47
2023-04-22T17:39:28.652Z,16.32
2023-04-22T17:41:55.470Z,16.16
2023-04-22T17:44:21.965Z,16.09
2023-04-22T17:46:48.530Z,16.00
2023-04-22T17:49:15.011Z,15.95
2023-04-22T17:51:41.561Z,15.85
2023-04-22T17:54:08.048Z,15.86
2023-04-22T17:56:34.623Z,15.92
2023-04-22T17:59:01.125Z,15.90
2023-04-22T18:01:29.600Z,15.87
2023-04-22T18:03:56.812Z,15.82
2023-04-22T18:06:23.433Z,15.78
2023-04-22T18:08:49.993Z,15.75
2023-04-22T18:11:16.678Z,15.74
2023-04-22T18:13:43.149Z,15.75
2023-04-22T18:16:09.659Z,15.65
2023-04-22T18:18:36.362Z,15.66
2023-04-22T18:21:03.147Z,15.55
2023-04-22T18:23:29.673Z,15.48
2023-04-22T18:25:56.341Z,15.45
2023-04-22T18:28:22.823Z,15.38
2023-04-22T18:30:49.405Z,15.30
2023-04-22T18:33:15.920Z,15.33
2023-04-22T18:35:42.512Z,15.34
2023-04-22T18:38:08.955Z,15.28
2023-04-22T18:40:35.608Z,15.31
2023-04-22T18:43:02.677Z,15.27
2023-04-22T18:45:29.140Z,15.25
2023-04-22T18:47:55.766Z,15.23
2023-04-22T18:50:22.453Z,15.09
2023-04-22T18:52:48.976Z,15.01
2023-04-22T18:55:15.650Z,14.98
2023-04-22T18:57:43.667Z,14.93
2023-04-22T19:00:12.658Z,14.97
2023-04-22T19:02:41.487Z,14.95
2023-04-22T19:05:09.578Z,14.81
2023-04-22T19:07:37.179Z,14.91
2023-04-22T19:10:04.349Z,14.84
2023-04-22T19:12:31.095Z,14.96
2023-04-22T19:15:00.206Z,15.08
2023-04-22T19:17:27.518Z,15.03
2023-04-22T19:19:54.312Z,14.97
2023-04-22T19:22:24.247Z,14.83
2023-04-22T19:24:51.992Z,14.76
2023-04-22T19:27:18.986Z,14.66
2023-04-22T19:29:51.177Z,14.58
2023-04-22T19:32:18.288Z,14.51
2023-04-22T19:34:44.844Z,14.52
2023-04-22T19:37:11.523Z,14.66
2023-04-22T19:39:38.018Z,14.72
2023-04-22T19:42:04.870Z,14.77
2023-04-22T19:44:31.657Z,14.77
2023-04-22T19:46:58.302Z,14.74
2023-04-22T19:49:25.124Z,14.72
2023-04-22T19:51:52.617Z,14.55
2023-04-22T19:54:22.731Z,14.52
2023-04-22T19:56:49.378Z,14.43
2023-04-22T19:59:16.212Z,14.30
2023-04-22T20:01:43.005Z,14.20
2023-04-22T20:04:10.058Z,14.14
2023-04-22T20:06:37.513Z,14.07
2023-04-22T20:09:05.504Z,14.08
2023-04-22T20:11:32.966Z,14.01
2023-04-22T20:14:00.063Z,13.94
2023-04-22T20:16:27.711Z,13.96
2023-04-22T20:18:54.529Z,13.92
2023-04-22T20:21:21.891Z,13.91
2023-04-22T20:23:51.298Z,13.84
2023-04-22T20:26:20.629Z,13.79
2023-04-22T20:28:54.675Z,13.80
2023-04-22T20:31:23.083Z,13.87
2023-04-22T20:33:51.094Z,13.75
2023-04-22T20:36:19.717Z,13.72
2023-04-22T20:38:49.151Z,13.74
2023-04-22T20:41:18.734Z,13.70
2023-04-22T20:43:46.458Z,13.66
2023-04-22T20:46:13.013Z,13.62
2023-04-22T20:48:39.580Z,13.61
2023-04-22T20:51:06.132Z,13.60
2023-04-22T20:53:32.711Z,13.59
2023-04-22T20:55:59.207Z,13.54
2023-04-22T20:58:26.679Z,13.53
2023-04-22T21:00:53.509Z,13.48
2023-04-22T21:03:22.813Z,13.50
2023-04-22T21:05:50.186Z,13.48
2023-04-22T21:08:22.768Z,13.44
2023-04-22T21:10:51.167Z,13.44
2023-04-22T21:13:18.179Z,13.52
2023-04-22T21:15:59.644Z,13.52
2023-04-22T21:18:28.890Z,13.51
2023-04-22T21:20:57.085Z,13.65
2023-04-22T21:23:24.921Z,13.66
2023-04-22T21:25:54.908Z,13.56
2023-04-22T21:28:21.882Z,13.54
2023-04-22T21:30:48.677Z,13.55
2023-04-22T21:33:15.276Z,13.52
2023-04-22T21:35:41.845Z,13.45
2023-04-22T21:38:09.121Z,13.44
2023-04-22T21:40:36.269Z,13.41
2023-04-22T21:43:04.410Z,13.36
2023-04-22T21:45:31.258Z,13.37
2023-04-22T21:48:00.832Z,13.36
2023-04-22T21:50:30.126Z,13.32
2023-04-22T21:52:56.744Z,13.30
2023-04-22T21:55:23.391Z,13.23
2023-04-22T21:57:49.896Z,13.18
2023-04-22T22:00:19.071Z,13.14
2023-04-22T22:02:47.360Z,13.19
2023-04-22T22:05:16.842Z,13.21
2023-04-22T22:07:44.797Z,13.10
2023-04-22T22:10:14.534Z,13.00
2023-04-22T22:12:41.665Z,12.96
2023-04-22T22:15:09.148Z,12.96
2023-04-22T22:17:38.030Z,12.90
2023-04-22T22:20:12.512Z,12.84
2023-04-22T22:22:39.884Z,12.84
2023-04-22T22:25:07.717Z,12.83
2023-04-22T22:27:35.283Z,12.83
2023-04-22T22:30:01.846Z,12.81
2023-04-22T22:32:28.354Z,12.89
2023-04-22T22:34:54.897Z,12.90
2023-04-22T22:37:21.474Z,12.92
2023-04-22T22:39:47.994Z,12.87
2023-04-22T22:42:14.880Z,12.88
2023-04-22T22:44:41.622Z,12.86
2023-04-22T22:47:09.386Z,12.89
2023-04-22T22:49:36.122Z,12.88
2023-04-22T22:52:02.637Z,12.88
2023-04-22T22:54:29.178Z,12.87
2023-04-22T22:56:57.803Z,12.83
2023-04-22T22:59:24.301Z,12.80
2023-04-22T23:01:50.947Z,12.89
2023-04-22T23:04:17.896Z,12.92
2023-04-22T23:06:44.536Z,12.93
2023-04-22T23:09:11.282Z,12.97
2023-04-22T23:11:37.759Z,12.95
2023-04-22T23:14:04.620Z,12.97
2023-04-22T23:16:31.543Z,12.88
2023-04-22T23:21:25.578Z,13.09
2023-04-22T23:23:52.719Z,13.11
2023-04-22T23:26:19.584Z,12.99
2023-04-22T23:28:46.617Z,12.95
2023-04-22T23:31:14.655Z,12.92
2023-04-22T23:33:42.399Z,12.99
2023-04-22T23:36:10.645Z,13.02
2023-04-22T23:38:37.090Z,13.01
2023-04-22T23:41:03.663Z,13.06
2023-04-22T23:43:30.144Z,13.07
2023-04-22T23:45:56.799Z,13.14
2023-04-22T23:48:23.357Z,13.12
2023-04-22T23:50:49.811Z,13.05
2023-04-22T23:53:16.267Z,13.07
2023-04-22T23:55:43.238Z,13.04
2023-04-22T23:58:09.941Z,13.05
